sensor_id;sensor_type;location;lat;lon;timestamp;P1;durP1;ratioP1;P2;durP2;ratioP2
50165;SDS011;36071;48.140;11.516;2022-08-21T00:02:13;4.0;;;1.8;;
50165;SDS011;36071;48.140;11.516;2022-08-21T00:07:11;2.7;;;1.5;;
50165;SDS011;36071;48.140;11.516;2022-08-21T00:12:11;2.1;;;1.6;;
50165;SDS011;36071;48.140;11.516;2022-08-21T00:17:11;2.9;;;1.4;;
50165;SDS011;36071;48.140;11.516;2022-08-21T00:22:11;3.0;;;1.4;;
50165;SDS011;36071;48.140;11.516;2022-08-21T00:27:11;2.7;;;1.5;;
50165;SDS011;36071;48.140;11.516;2022-08-21T00:32:11;3.2;;;1.4;;
50165;SDS011;36071;48.140;11.516;2022-08-21T00:37:11;2.7;;;1.4;;
50165;SDS011;36071;48.140;11.516;2022-08-21T00:42:11;1.7;;;1.4;;
50165;SDS011;36071;48.140;11.516;2022-08-21T00:47:11;3.3;;;1.4;;
50165;SDS011;36071;48.140;11.516;2022-08-21T00:52:12;2.0;;;1.4;;
50165;SDS011;36071;48.140;11.516;2022-08-21T00:57:13;4.7;;;1.5;;
50165;SDS011;36071;48.140;11.516;2022-08-21T01:02:12;2.2;;;1.4;;
50165;SDS011;36071;48.140;11.516;2022-08-21T01:07:12;2.0;;;1.4;;
50165;SDS011;36071;48.140;11.516;2022-08-21T01:12:11;4.1;;;1.2;;
50165;SDS011;36071;48.140;11.516;2022-08-21T01:17:12;1.4;;;1.3;;
50165;SDS011;36071;48.140;11.516;2022-08-21T01:22:12;1.9;;;1.2;;
50165;SDS011;36071;48.140;11.516;2022-08-21T01:27:11;3.9;;;1.3;;
50165;SDS011;36071;48.140;11.516;2022-08-21T01:32:12;1.5;;;1.3;;
50165;SDS011;36071;48.140;11.516;2022-08-21T01:37:12;1.5;;;1.2;;
50165;SDS011;36071;48.140;11.516;2022-08-21T01:42:11;2.2;;;1.5;;
50165;SDS011;36071;48.140;11.516;2022-08-21T01:47:12;2.6;;;1.4;;
50165;SDS011;36071;48.140;11.516;2022-08-21T01:52:11;1.4;;;1.1;;
50165;SDS011;36071;48.140;11.516;2022-08-21T01:57:12;4.9;;;1.5;;
50165;SDS011;36071;48.140;11.516;2022-08-21T02:02:11;1.9;;;1.3;;
50165;SDS011;36071;48.140;11.516;2022-08-21T02:07:11;2.6;;;1.2;;
50165;SDS011;36071;48.140;11.516;2022-08-21T02:12:11;1.8;;;1.5;;
50165;SDS011;36071;48.140;11.516;2022-08-21T02:17:12;2.4;;;1.3;;
50165;SDS011;36071;48.140;11.516;2022-08-21T02:22:11;2.1;;;1.3;;
50165;SDS011;36071;48.140;11.516;2022-08-21T02:27:11;2.1;;;1.4;;
50165;SDS011;36071;48.140;11.516;2022-08-21T02:32:11;2.6;;;1.3;;
50165;SDS011;36071;48.140;11.516;2022-08-21T02:37:12;3.5;;;1.4;;
50165;SDS011;36071;48.140;11.516;2022-08-21T02:42:11;1.6;;;1.5;;
50165;SDS011;36071;48.140;11.516;2022-08-21T02:47:11;1.5;;;1.4;;
50165;SDS011;36071;48.140;11.516;2022-08-21T02:52:11;1.8;;;1.1;;
50165;SDS011;36071;48.140;11.516;2022-08-21T02:57:11;1.4;;;1.0;;
50165;SDS011;36071;48.140;11.516;2022-08-21T03:02:11;2.3;;;1.5;;
50165;SDS011;36071;48.140;11.516;2022-08-21T03:07:11;1.9;;;1.3;;
50165;SDS011;36071;48.140;11.516;2022-08-21T03:12:11;2.9;;;1.5;;
50165;SDS011;36071;48.140;11.516;2022-08-21T03:17:11;2.3;;;1.4;;
50165;SDS011;36071;48.140;11.516;2022-08-21T03:22:11;2.1;;;1.4;;
50165;SDS011;36071;48.140;11.516;2022-08-21T03:27:11;1.7;;;1.2;;
50165;SDS011;36071;48.140;11.516;2022-08-21T03:32:11;3.1;;;1.3;;
50165;SDS011;36071;48.140;11.516;2022-08-21T03:37:12;1.8;;;1.3;;
50165;SDS011;36071;48.140;11.516;2022-08-21T03:42:11;1.6;;;1.3;;
50165;SDS011;36071;48.140;11.516;2022-08-21T03:47:11;3.1;;;1.6;;
50165;SDS011;36071;48.140;11.516;2022-08-21T03:52:11;2.3;;;1.5;;
50165;SDS011;36071;48.140;11.516;2022-08-21T03:57:12;3.6;;;1.4;;
50165;SDS011;36071;48.140;11.516;2022-08-21T04:02:11;2.1;;;1.3;;
50165;SDS011;36071;48.140;11.516;2022-08-21T04:07:12;2.9;;;1.4;;
50165;SDS011;36071;48.140;11.516;2022-08-21T04:12:11;2.1;;;1.3;;
50165;SDS011;36071;48.140;11.516;2022-08-21T04:17:11;2.8;;;1.6;;
50165;SDS011;36071;48.140;11.516;2022-08-21T04:22:11;1.9;;;1.5;;
50165;SDS011;36071;48.140;11.516;2022-08-21T04:27:11;2.4;;;1.7;;
50165;SDS011;36071;48.140;11.516;2022-08-21T04:32:11;2.9;;;1.4;;
50165;SDS011;36071;48.140;11.516;2022-08-21T04:37:11;4.5;;;1.7;;
50165;SDS011;36071;48.140;11.516;2022-08-21T04:42:11;3.9;;;1.6;;
50165;SDS011;36071;48.140;11.516;2022-08-21T04:47:11;4.0;;;1.6;;
50165;SDS011;36071;48.140;11.516;2022-08-21T04:52:12;3.1;;;1.7;;
50165;SDS011;36071;48.140;11.516;2022-08-21T04:57:11;3.8;;;1.7;;
50165;SDS011;36071;48.140;11.516;2022-08-21T05:02:12;3.0;;;1.5;;
50165;SDS011;36071;48.140;11.516;2022-08-21T05:07:12;3.2;;;2.5;;
50165;SDS011;36071;48.140;11.516;2022-08-21T05:12:11;4.2;;;2.1;;
50165;SDS011;36071;48.140;11.516;2022-08-21T05:17:11;2.2;;;1.7;;
50165;SDS011;36071;48.140;11.516;2022-08-21T05:22:18;3.2;;;1.9;;
50165;SDS011;36071;48.140;11.516;2022-08-21T05:27:11;3.7;;;1.7;;
50165;SDS011;36071;48.140;11.516;2022-08-21T05:32:12;3.8;;;1.8;;
50165;SDS011;36071;48.140;11.516;2022-08-21T05:37:11;1.9;;;1.6;;
50165;SDS011;36071;48.140;11.516;2022-08-21T05:42:12;5.2;;;2.9;;
50165;SDS011;36071;48.140;11.516;2022-08-21T05:47:11;2.7;;;1.7;;
50165;SDS011;36071;48.140;11.516;2022-08-21T05:52:11;3.2;;;1.8;;
50165;SDS011;36071;48.140;11.516;2022-08-21T05:57:12;2.5;;;1.5;;
50165;SDS011;36071;48.140;11.516;2022-08-21T06:02:11;6.0;;;2.1;;
50165;SDS011;36071;48.140;11.516;2022-08-21T06:07:11;5.8;;;2.8;;
50165;SDS011;36071;48.140;11.516;2022-08-21T06:12:12;4.3;;;2.2;;
50165;SDS011;36071;48.140;11.516;2022-08-21T06:17:12;3.1;;;1.8;;
50165;SDS011;36071;48.140;11.516;2022-08-21T06:22:11;3.5;;;2.2;;
50165;SDS011;36071;48.140;11.516;2022-08-21T06:27:12;4.0;;;1.8;;
50165;SDS011;36071;48.140;11.516;2022-08-21T06:32:12;4.4;;;2.0;;
50165;SDS011;36071;48.140;11.516;2022-08-21T06:37:12;2.3;;;1.9;;
50165;SDS011;36071;48.140;11.516;2022-08-21T06:42:13;4.0;;;1.9;;
50165;SDS011;36071;48.140;11.516;2022-08-21T06:47:11;2.7;;;1.8;;
50165;SDS011;36071;48.140;11.516;2022-08-21T06:52:12;2.8;;;1.8;;
50165;SDS011;36071;48.140;11.516;2022-08-21T06:57:11;3.6;;;1.9;;
50165;SDS011;36071;48.140;11.516;2022-08-21T07:02:11;3.8;;;1.8;;
50165;SDS011;36071;48.140;11.516;2022-08-21T07:07:11;4.7;;;2.1;;
50165;SDS011;36071;48.140;11.516;2022-08-21T07:12:11;4.3;;;2.5;;
50165;SDS011;36071;48.140;11.516;2022-08-21T07:17:11;5.6;;;2.0;;
50165;SDS011;36071;48.140;11.516;2022-08-21T07:22:12;3.0;;;2.2;;
50165;SDS011;36071;48.140;11.516;2022-08-21T07:27:11;4.4;;;2.5;;
50165;SDS011;36071;48.140;11.516;2022-08-21T07:32:12;4.3;;;2.2;;
50165;SDS011;36071;48.140;11.516;2022-08-21T07:37:11;4.4;;;2.5;;
50165;SDS011;36071;48.140;11.516;2022-08-21T07:42:11;5.1;;;2.6;;
50165;SDS011;36071;48.140;11.516;2022-08-21T07:47:11;5.3;;;2.5;;
50165;SDS011;36071;48.140;11.516;2022-08-21T07:52:11;5.3;;;2.6;;
50165;SDS011;36071;48.140;11.516;2022-08-21T07:57:11;3.4;;;2.7;;
50165;SDS011;36071;48.140;11.516;2022-08-21T08:02:21;4.2;;;2.4;;
50165;SDS011;36071;48.140;11.516;2022-08-21T08:07:11;4.3;;;2.4;;
50165;SDS011;36071;48.140;11.516;2022-08-21T08:12:11;4.9;;;2.6;;
50165;SDS011;36071;48.140;11.516;2022-08-21T08:17:11;5.3;;;2.6;;
50165;SDS011;36071;48.140;11.516;2022-08-21T08:22:12;4.4;;;2.6;;
50165;SDS011;36071;48.140;11.516;2022-08-21T08:27:11;3.6;;;2.6;;
50165;SDS011;36071;48.140;11.516;2022-08-21T08:32:12;3.8;;;2.5;;
50165;SDS011;36071;48.140;11.516;2022-08-21T08:37:11;5.3;;;3.0;;
50165;SDS011;36071;48.140;11.516;2022-08-21T08:42:13;4.4;;;2.6;;
50165;SDS011;36071;48.140;11.516;2022-08-21T08:47:12;5.7;;;2.8;;
50165;SDS011;36071;48.140;11.516;2022-08-21T08:52:14;4.2;;;3.2;;
50165;SDS011;36071;48.140;11.516;2022-08-21T08:57:14;4.4;;;2.6;;
50165;SDS011;36071;48.140;11.516;2022-08-21T09:02:12;3.8;;;2.7;;
50165;SDS011;36071;48.140;11.516;2022-08-21T09:07:12;5.9;;;3.0;;
50165;SDS011;36071;48.140;11.516;2022-08-21T09:12:14;4.1;;;3.0;;
50165;SDS011;36071;48.140;11.516;2022-08-21T09:17:13;4.3;;;2.6;;
50165;SDS011;36071;48.140;11.516;2022-08-21T09:22:14;4.9;;;3.0;;
50165;SDS011;36071;48.140;11.516;2022-08-21T09:27:13;4.2;;;2.8;;
50165;SDS011;36071;48.140;11.516;2022-08-21T09:32:15;3.7;;;2.3;;
50165;SDS011;36071;48.140;11.516;2022-08-21T09:37:15;6.4;;;2.7;;
50165;SDS011;36071;48.140;11.516;2022-08-21T09:42:11;3.3;;;2.3;;
50165;SDS011;36071;48.140;11.516;2022-08-21T09:47:12;3.9;;;2.4;;
50165;SDS011;36071;48.140;11.516;2022-08-21T09:52:15;3.8;;;2.5;;
50165;SDS011;36071;48.140;11.516;2022-08-21T09:57:12;5.5;;;2.8;;
50165;SDS011;36071;48.140;11.516;2022-08-21T10:02:19;5.8;;;2.6;;
50165;SDS011;36071;48.140;11.516;2022-08-21T10:07:12;4.5;;;2.6;;
50165;SDS011;36071;48.140;11.516;2022-08-21T10:12:13;2.7;;;1.9;;
50165;SDS011;36071;48.140;11.516;2022-08-21T10:17:14;4.0;;;2.1;;
50165;SDS011;36071;48.140;11.516;2022-08-21T10:22:15;3.4;;;2.4;;
50165;SDS011;36071;48.140;11.516;2022-08-21T10:32:15;3.8;;;2.2;;
50165;SDS011;36071;48.140;11.516;2022-08-21T10:37:15;2.9;;;2.6;;
50165;SDS011;36071;48.140;11.516;2022-08-21T10:42:16;5.7;;;2.8;;
50165;SDS011;36071;48.140;11.516;2022-08-21T10:47:12;3.4;;;2.6;;
50165;SDS011;36071;48.140;11.516;2022-08-21T10:52:19;2.7;;;2.2;;
50165;SDS011;36071;48.140;11.516;2022-08-21T10:57:12;3.6;;;2.1;;
50165;SDS011;36071;48.140;11.516;2022-08-21T11:02:13;3.4;;;2.3;;
50165;SDS011;36071;48.140;11.516;2022-08-21T11:07:12;11.3;;;9.1;;
50165;SDS011;36071;48.140;11.516;2022-08-21T11:12:14;15.9;;;11.3;;
50165;SDS011;36071;48.140;11.516;2022-08-21T11:17:13;4.4;;;2.7;;
50165;SDS011;36071;48.140;11.516;2022-08-21T11:22:13;17.0;;;12.8;;
50165;SDS011;36071;48.140;11.516;2022-08-21T11:27:14;6.3;;;5.1;;
50165;SDS011;36071;48.140;11.516;2022-08-21T11:32:20;5.5;;;3.3;;
50165;SDS011;36071;48.140;11.516;2022-08-21T11:37:15;4.4;;;3.0;;
50165;SDS011;36071;48.140;11.516;2022-08-21T11:42:16;4.9;;;2.9;;
50165;SDS011;36071;48.140;11.516;2022-08-21T11:47:12;5.8;;;3.3;;
50165;SDS011;36071;48.140;11.516;2022-08-21T11:52:13;4.7;;;2.5;;
50165;SDS011;36071;48.140;11.516;2022-08-21T11:57:14;5.6;;;2.1;;
50165;SDS011;36071;48.140;11.516;2022-08-21T12:02:12;6.7;;;2.2;;
50165;SDS011;36071;48.140;11.516;2022-08-21T12:07:12;3.5;;;2.3;;
50165;SDS011;36071;48.140;11.516;2022-08-21T12:12:12;3.0;;;1.9;;
50165;SDS011;36071;48.140;11.516;2022-08-21T12:17:17;23.8;;;19.6;;
50165;SDS011;36071;48.140;11.516;2022-08-21T12:22:12;5.3;;;3.9;;
50165;SDS011;36071;48.140;11.516;2022-08-21T12:27:14;3.9;;;2.0;;
50165;SDS011;36071;48.140;11.516;2022-08-21T12:32:22;4.0;;;2.1;;
50165;SDS011;36071;48.140;11.516;2022-08-21T12:37:14;5.3;;;2.1;;
50165;SDS011;36071;48.140;11.516;2022-08-21T12:42:15;3.2;;;2.2;;
50165;SDS011;36071;48.140;11.516;2022-08-21T12:47:15;3.6;;;1.9;;
50165;SDS011;36071;48.140;11.516;2022-08-21T12:52:13;11.3;;;4.6;;
50165;SDS011;36071;48.140;11.516;2022-08-21T12:57:17;3.8;;;2.1;;
50165;SDS011;36071;48.140;11.516;2022-08-21T13:02:16;3.4;;;2.1;;
50165;SDS011;36071;48.140;11.516;2022-08-21T13:07:12;14.1;;;6.5;;
50165;SDS011;36071;48.140;11.516;2022-08-21T13:12:12;13.8;;;6.1;;
50165;SDS011;36071;48.140;11.516;2022-08-21T13:17:12;5.2;;;2.5;;
50165;SDS011;36071;48.140;11.516;2022-08-21T13:22:12;4.5;;;2.3;;
50165;SDS011;36071;48.140;11.516;2022-08-21T13:27:17;2.8;;;2.2;;
50165;SDS011;36071;48.140;11.516;2022-08-21T13:32:15;2.2;;;1.8;;
50165;SDS011;36071;48.140;11.516;2022-08-21T13:37:12;8.2;;;5.2;;
50165;SDS011;36071;48.140;11.516;2022-08-21T13:42:12;5.8;;;4.3;;
50165;SDS011;36071;48.140;11.516;2022-08-21T13:47:12;5.6;;;3.3;;
50165;SDS011;36071;48.140;11.516;2022-08-21T13:52:14;5.3;;;2.8;;
50165;SDS011;36071;48.140;11.516;2022-08-21T13:57:15;6.1;;;2.3;;
50165;SDS011;36071;48.140;11.516;2022-08-21T14:02:12;4.9;;;2.2;;
50165;SDS011;36071;48.140;11.516;2022-08-21T14:07:15;4.0;;;2.4;;
50165;SDS011;36071;48.140;11.516;2022-08-21T14:12:13;2.9;;;1.8;;
50165;SDS011;36071;48.140;11.516;2022-08-21T14:17:13;4.2;;;2.1;;
50165;SDS011;36071;48.140;11.516;2022-08-21T14:22:28;3.5;;;2.0;;
50165;SDS011;36071;48.140;11.516;2022-08-21T14:27:12;2.7;;;1.9;;
50165;SDS011;36071;48.140;11.516;2022-08-21T14:32:13;4.3;;;2.0;;
50165;SDS011;36071;48.140;11.516;2022-08-21T14:37:12;2.7;;;2.1;;
50165;SDS011;36071;48.140;11.516;2022-08-21T14:42:12;4.6;;;2.0;;
50165;SDS011;36071;48.140;11.516;2022-08-21T14:47:12;4.8;;;2.4;;
50165;SDS011;36071;48.140;11.516;2022-08-21T14:52:12;3.3;;;2.0;;
50165;SDS011;36071;48.140;11.516;2022-08-21T14:57:12;3.4;;;2.0;;
50165;SDS011;36071;48.140;11.516;2022-08-21T15:02:12;20.4;;;15.8;;
50165;SDS011;36071;48.140;11.516;2022-08-21T15:07:12;3.3;;;2.5;;
50165;SDS011;36071;48.140;11.516;2022-08-21T15:12:12;5.4;;;2.6;;
50165;SDS011;36071;48.140;11.516;2022-08-21T15:17:12;4.1;;;2.6;;
50165;SDS011;36071;48.140;11.516;2022-08-21T15:22:12;4.2;;;2.6;;
50165;SDS011;36071;48.140;11.516;2022-08-21T15:27:12;3.9;;;2.5;;
50165;SDS011;36071;48.140;11.516;2022-08-21T15:32:17;5.3;;;2.8;;
50165;SDS011;36071;48.140;11.516;2022-08-21T15:37:12;4.0;;;2.4;;
50165;SDS011;36071;48.140;11.516;2022-08-21T15:42:12;4.3;;;2.6;;
50165;SDS011;36071;48.140;11.516;2022-08-21T15:47:13;6.5;;;2.6;;
50165;SDS011;36071;48.140;11.516;2022-08-21T15:52:12;3.9;;;2.4;;
50165;SDS011;36071;48.140;11.516;2022-08-21T15:57:13;6.2;;;2.4;;
50165;SDS011;36071;48.140;11.516;2022-08-21T16:02:12;5.6;;;2.5;;
50165;SDS011;36071;48.140;11.516;2022-08-21T16:07:12;8.0;;;6.1;;
50165;SDS011;36071;48.140;11.516;2022-08-21T16:12:13;6.0;;;4.9;;
50165;SDS011;36071;48.140;11.516;2022-08-21T16:17:12;3.1;;;2.3;;
50165;SDS011;36071;48.140;11.516;2022-08-21T16:22:12;4.2;;;3.0;;
50165;SDS011;36071;48.140;11.516;2022-08-21T16:27:12;5.4;;;2.8;;
50165;SDS011;36071;48.140;11.516;2022-08-21T16:32:12;3.6;;;2.6;;
50165;SDS011;36071;48.140;11.516;2022-08-21T16:37:12;6.2;;;2.8;;
50165;SDS011;36071;48.140;11.516;2022-08-21T16:42:12;6.0;;;3.2;;
50165;SDS011;36071;48.140;11.516;2022-08-21T16:47:12;3.3;;;2.6;;
50165;SDS011;36071;48.140;11.516;2022-08-21T16:52:12;5.4;;;2.8;;
50165;SDS011;36071;48.140;11.516;2022-08-21T16:57:12;3.7;;;2.8;;
50165;SDS011;36071;48.140;11.516;2022-08-21T17:02:15;20.4;;;13.3;;
50165;SDS011;36071;48.140;11.516;2022-08-21T17:07:12;7.1;;;4.2;;
50165;SDS011;36071;48.140;11.516;2022-08-21T17:12:12;12.7;;;8.7;;
50165;SDS011;36071;48.140;11.516;2022-08-21T17:17:12;10.6;;;6.2;;
50165;SDS011;36071;48.140;11.516;2022-08-21T17:22:12;4.8;;;2.9;;
50165;SDS011;36071;48.140;11.516;2022-08-21T17:27:12;5.1;;;3.6;;
50165;SDS011;36071;48.140;11.516;2022-08-21T17:32:12;5.5;;;3.0;;
50165;SDS011;36071;48.140;11.516;2022-08-21T17:37:12;23.2;;;16.2;;
50165;SDS011;36071;48.140;11.516;2022-08-21T17:42:12;23.2;;;16.7;;
50165;SDS011;36071;48.140;11.516;2022-08-21T17:47:12;26.5;;;19.4;;
50165;SDS011;36071;48.140;11.516;2022-08-21T17:52:12;27.8;;;18.8;;
50165;SDS011;36071;48.140;11.516;2022-08-21T17:57:13;12.9;;;9.7;;
50165;SDS011;36071;48.140;11.516;2022-08-21T18:02:12;12.6;;;8.3;;
50165;SDS011;36071;48.140;11.516;2022-08-21T18:07:12;10.8;;;7.1;;
50165;SDS011;36071;48.140;11.516;2022-08-21T18:12:12;8.3;;;4.7;;
50165;SDS011;36071;48.140;11.516;2022-08-21T18:17:13;7.3;;;4.1;;
50165;SDS011;36071;48.140;11.516;2022-08-21T18:22:12;7.7;;;4.0;;
50165;SDS011;36071;48.140;11.516;2022-08-21T18:27:12;7.0;;;4.4;;
50165;SDS011;36071;48.140;11.516;2022-08-21T18:32:12;8.1;;;4.4;;
50165;SDS011;36071;48.140;11.516;2022-08-21T18:37:12;7.8;;;4.1;;
50165;SDS011;36071;48.140;11.516;2022-08-21T18:42:13;9.1;;;4.5;;
50165;SDS011;36071;48.140;11.516;2022-08-21T18:47:13;7.2;;;4.6;;
50165;SDS011;36071;48.140;11.516;2022-08-21T18:52:12;7.9;;;4.2;;
50165;SDS011;36071;48.140;11.516;2022-08-21T18:57:12;6.6;;;4.5;;
50165;SDS011;36071;48.140;11.516;2022-08-21T19:02:12;7.9;;;4.7;;
50165;SDS011;36071;48.140;11.516;2022-08-21T19:07:12;8.2;;;4.8;;
50165;SDS011;36071;48.140;11.516;2022-08-21T19:12:13;16.7;;;5.2;;
50165;SDS011;36071;48.140;11.516;2022-08-21T19:17:12;8.7;;;4.9;;
50165;SDS011;36071;48.140;11.516;2022-08-21T19:22:12;9.5;;;5.3;;
50165;SDS011;36071;48.140;11.516;2022-08-21T19:27:12;8.5;;;5.8;;
50165;SDS011;36071;48.140;11.516;2022-08-21T19:32:12;8.4;;;5.6;;
50165;SDS011;36071;48.140;11.516;2022-08-21T19:37:12;7.7;;;5.5;;
50165;SDS011;36071;48.140;11.516;2022-08-21T19:42:12;9.8;;;5.9;;
50165;SDS011;36071;48.140;11.516;2022-08-21T19:47:13;9.7;;;5.3;;
50165;SDS011;36071;48.140;11.516;2022-08-21T19:52:12;14.2;;;8.3;;
50165;SDS011;36071;48.140;11.516;2022-08-21T19:57:12;21.3;;;13.0;;
50165;SDS011;36071;48.140;11.516;2022-08-21T20:02:12;12.6;;;7.3;;
50165;SDS011;36071;48.140;11.516;2022-08-21T20:07:12;11.1;;;7.0;;
50165;SDS011;36071;48.140;11.516;2022-08-21T20:12:12;12.7;;;8.7;;
50165;SDS011;36071;48.140;11.516;2022-08-21T20:17:12;9.7;;;6.5;;
50165;SDS011;36071;48.140;11.516;2022-08-21T20:22:12;12.3;;;7.2;;
50165;SDS011;36071;48.140;11.516;2022-08-21T20:27:13;13.8;;;7.8;;
50165;SDS011;36071;48.140;11.516;2022-08-21T20:32:12;9.3;;;6.8;;
50165;SDS011;36071;48.140;11.516;2022-08-21T20:37:12;11.0;;;6.7;;
50165;SDS011;36071;48.140;11.516;2022-08-21T20:42:12;14.4;;;6.4;;
50165;SDS011;36071;48.140;11.516;2022-08-21T20:47:12;11.4;;;6.3;;
50165;SDS011;36071;48.140;11.516;2022-08-21T20:52:12;9.1;;;6.0;;
50165;SDS011;36071;48.140;11.516;2022-08-21T20:57:13;8.3;;;6.2;;
50165;SDS011;36071;48.140;11.516;2022-08-21T21:02:16;10.5;;;6.5;;
50165;SDS011;36071;48.140;11.516;2022-08-21T21:07:15;8.9;;;6.3;;
50165;SDS011;36071;48.140;11.516;2022-08-21T21:12:14;10.9;;;7.1;;
50165;SDS011;36071;48.140;11.516;2022-08-21T21:17:13;9.7;;;7.0;;
50165;SDS011;36071;48.140;11.516;2022-08-21T21:22:13;9.9;;;6.2;;
50165;SDS011;36071;48.140;11.516;2022-08-21T21:27:12;39.7;;;26.2;;
50165;SDS011;36071;48.140;11.516;2022-08-21T21:32:12;38.1;;;25.2;;
50165;SDS011;36071;48.140;11.516;2022-08-21T21:37:13;11.0;;;6.5;;
50165;SDS011;36071;48.140;11.516;2022-08-21T21:42:14;34.7;;;23.3;;
50165;SDS011;36071;48.140;11.516;2022-08-21T21:47:13;23.7;;;12.8;;
50165;SDS011;36071;48.140;11.516;2022-08-21T21:52:16;9.0;;;5.8;;
50165;SDS011;36071;48.140;11.516;2022-08-21T21:57:15;10.4;;;5.9;;
50165;SDS011;36071;48.140;11.516;2022-08-21T22:02:13;8.8;;;5.8;;
50165;SDS011;36071;48.140;11.516;2022-08-21T22:07:14;10.6;;;5.5;;
50165;SDS011;36071;48.140;11.516;2022-08-21T22:12:17;8.5;;;5.4;;
50165;SDS011;36071;48.140;11.516;2022-08-21T22:17:16;7.3;;;5.2;;
50165;SDS011;36071;48.140;11.516;2022-08-21T22:22:14;7.1;;;4.9;;
50165;SDS011;36071;48.140;11.516;2022-08-21T22:27:14;9.0;;;5.1;;
50165;SDS011;36071;48.140;11.516;2022-08-21T22:32:16;8.2;;;4.8;;
50165;SDS011;36071;48.140;11.516;2022-08-21T22:37:12;11.7;;;5.3;;
50165;SDS011;36071;48.140;11.516;2022-08-21T22:42:13;9.5;;;5.0;;
50165;SDS011;36071;48.140;11.516;2022-08-21T22:47:12;8.2;;;5.2;;
50165;SDS011;36071;48.140;11.516;2022-08-21T22:52:18;10.9;;;4.9;;
50165;SDS011;36071;48.140;11.516;2022-08-21T22:57:13;10.2;;;5.1;;
50165;SDS011;36071;48.140;11.516;2022-08-21T23:02:18;9.6;;;5.5;;
50165;SDS011;36071;48.140;11.516;2022-08-21T23:07:12;10.1;;;5.0;;
50165;SDS011;36071;48.140;11.516;2022-08-21T23:12:22;8.5;;;5.0;;
50165;SDS011;36071;48.140;11.516;2022-08-21T23:17:17;8.1;;;5.1;;
50165;SDS011;36071;48.140;11.516;2022-08-21T23:22:18;7.1;;;4.8;;
50165;SDS011;36071;48.140;11.516;2022-08-21T23:27:13;8.7;;;4.7;;
50165;SDS011;36071;48.140;11.516;2022-08-21T23:32:17;6.6;;;4.3;;
50165;SDS011;36071;48.140;11.516;2022-08-21T23:37:15;5.7;;;4.1;;
50165;SDS011;36071;48.140;11.516;2022-08-21T23:42:15;7.8;;;4.7;;
50165;SDS011;36071;48.140;11.516;2022-08-21T23:47:26;6.4;;;4.8;;
50165;SDS011;36071;48.140;11.516;2022-08-21T23:52:14;8.4;;;4.1;;
50165;SDS011;36071;48.140;11.516;2022-08-21T23:57:14;6.7;;;4.5;;
